sensor_id;sensor_type;location;lat;lon;timestamp;P1;durP1;ratioP1;P2;durP2;ratioP2
24995;SDS011;13016;52.162;21.034;2023-06-22T00:04:44;24.40;;;21.40;;
24995;SDS011;13016;52.162;21.034;2023-06-22T00:16:46;25.40;;;22.40;;
24995;SDS011;13016;52.162;21.034;2023-06-22T00:22:46;25.10;;;22.30;;
24995;SDS011;13016;52.162;21.034;2023-06-22T00:28:46;25.90;;;22.40;;
24995;SDS011;13016;52.162;21.034;2023-06-22T00:34:47;25.60;;;22.70;;
24995;SDS011;13016;52.162;21.034;2023-06-22T00:40:47;23.80;;;21.20;;
24995;SDS011;13016;52.162;21.034;2023-06-22T00:46:47;25.10;;;22.30;;
24995;SDS011;13016;52.162;21.034;2023-06-22T00:52:51;25.00;;;22.20;;
24995;SDS011;13016;52.162;21.034;2023-06-22T00:58:53;25.00;;;22.40;;
24995;SDS011;13016;52.162;21.034;2023-06-22T01:04:53;25.50;;;22.50;;
24995;SDS011;13016;52.162;21.034;2023-06-22T01:10:55;24.40;;;21.70;;
24995;SDS011;13016;52.162;21.034;2023-06-22T01:17:08;28.50;;;22.40;;
24995;SDS011;13016;52.162;21.034;2023-06-22T01:29:21;25.80;;;22.60;;
24995;SDS011;13016;52.162;21.034;2023-06-22T01:35:22;24.60;;;21.50;;
24995;SDS011;13016;52.162;21.034;2023-06-22T01:41:25;24.60;;;21.10;;
24995;SDS011;13016;52.162;21.034;2023-06-22T01:47:26;26.20;;;21.90;;
24995;SDS011;13016;52.162;21.034;2023-06-22T01:53:27;23.90;;;21.30;;
24995;SDS011;13016;52.162;21.034;2023-06-22T02:05:54;25.50;;;22.70;;
24995;SDS011;13016;52.162;21.034;2023-06-22T02:12:02;26.60;;;23.90;;
24995;SDS011;13016;52.162;21.034;2023-06-22T02:18:05;27.10;;;23.90;;
24995;SDS011;13016;52.162;21.034;2023-06-22T02:24:05;27.60;;;23.40;;
24995;SDS011;13016;52.162;21.034;2023-06-22T02:30:07;31.00;;;26.00;;
24995;SDS011;13016;52.162;21.034;2023-06-22T02:36:08;32.50;;;27.00;;
24995;SDS011;13016;52.162;21.034;2023-06-22T02:42:08;35.50;;;29.10;;
24995;SDS011;13016;52.162;21.034;2023-06-22T02:48:09;36.80;;;30.00;;
24995;SDS011;13016;52.162;21.034;2023-06-22T02:54:10;45.30;;;34.60;;
24995;SDS011;13016;52.162;21.034;2023-06-22T03:00:10;47.50;;;34.80;;
24995;SDS011;13016;52.162;21.034;2023-06-22T03:06:11;47.30;;;34.20;;
24995;SDS011;13016;52.162;21.034;2023-06-22T03:12:11;48.10;;;36.10;;
24995;SDS011;13016;52.162;21.034;2023-06-22T03:18:12;46.20;;;34.50;;
24995;SDS011;13016;52.162;21.034;2023-06-22T03:24:12;46.40;;;35.40;;
24995;SDS011;13016;52.162;21.034;2023-06-22T03:30:12;45.80;;;35.20;;
24995;SDS011;13016;52.162;21.034;2023-06-22T03:36:12;41.50;;;34.80;;
24995;SDS011;13016;52.162;21.034;2023-06-22T03:42:13;42.80;;;35.10;;
24995;SDS011;13016;52.162;21.034;2023-06-22T03:48:13;44.70;;;35.30;;
24995;SDS011;13016;52.162;21.034;2023-06-22T03:54:13;41.20;;;34.30;;
24995;SDS011;13016;52.162;21.034;2023-06-22T04:00:13;41.80;;;32.00;;
24995;SDS011;13016;52.162;21.034;2023-06-22T04:06:14;38.40;;;32.70;;
24995;SDS011;13016;52.162;21.034;2023-06-22T04:12:15;41.10;;;33.00;;
24995;SDS011;13016;52.162;21.034;2023-06-22T04:18:15;36.10;;;30.70;;
24995;SDS011;13016;52.162;21.034;2023-06-22T04:24:15;37.10;;;31.20;;
24995;SDS011;13016;52.162;21.034;2023-06-22T04:30:16;38.00;;;31.00;;
24995;SDS011;13016;52.162;21.034;2023-06-22T04:36:16;35.60;;;30.60;;
24995;SDS011;13016;52.162;21.034;2023-06-22T04:42:17;33.20;;;28.40;;
24995;SDS011;13016;52.162;21.034;2023-06-22T04:48:17;37.00;;;28.90;;
24995;SDS011;13016;52.162;21.034;2023-06-22T04:54:18;36.70;;;30.00;;
24995;SDS011;13016;52.162;21.034;2023-06-22T05:00:18;33.40;;;29.30;;
24995;SDS011;13016;52.162;21.034;2023-06-22T05:06:23;37.60;;;29.30;;
24995;SDS011;13016;52.162;21.034;2023-06-22T05:12:23;34.80;;;28.60;;
24995;SDS011;13016;52.162;21.034;2023-06-22T05:18:23;31.90;;;27.80;;
24995;SDS011;13016;52.162;21.034;2023-06-22T05:24:24;32.50;;;27.40;;
24995;SDS011;13016;52.162;21.034;2023-06-22T05:30:24;30.90;;;27.40;;
24995;SDS011;13016;52.162;21.034;2023-06-22T05:36:24;30.60;;;26.20;;
24995;SDS011;13016;52.162;21.034;2023-06-22T05:42:24;29.70;;;24.80;;
24995;SDS011;13016;52.162;21.034;2023-06-22T05:48:25;28.00;;;25.00;;
24995;SDS011;13016;52.162;21.034;2023-06-22T05:54:26;34.80;;;26.20;;
24995;SDS011;13016;52.162;21.034;2023-06-22T06:00:27;34.60;;;25.10;;
24995;SDS011;13016;52.162;21.034;2023-06-22T06:06:27;32.60;;;26.50;;
24995;SDS011;13016;52.162;21.034;2023-06-22T06:12:28;28.30;;;24.50;;
24995;SDS011;13016;52.162;21.034;2023-06-22T06:18:29;25.50;;;22.30;;
24995;SDS011;13016;52.162;21.034;2023-06-22T06:24:29;27.70;;;23.30;;
24995;SDS011;13016;52.162;21.034;2023-06-22T06:30:30;31.00;;;22.30;;
24995;SDS011;13016;52.162;21.034;2023-06-22T06:36:30;27.50;;;21.80;;
24995;SDS011;13016;52.162;21.034;2023-06-22T06:42:30;25.00;;;20.80;;
24995;SDS011;13016;52.162;21.034;2023-06-22T06:48:31;24.20;;;21.10;;
24995;SDS011;13016;52.162;21.034;2023-06-22T06:54:31;25.30;;;21.70;;
24995;SDS011;13016;52.162;21.034;2023-06-22T07:00:36;31.70;;;26.60;;
24995;SDS011;13016;52.162;21.034;2023-06-22T07:13:17;23.00;;;19.50;;
24995;SDS011;13016;52.162;21.034;2023-06-22T07:19:24;20.30;;;17.70;;
24995;SDS011;13016;52.162;21.034;2023-06-22T07:25:25;17.60;;;15.50;;
24995;SDS011;13016;52.162;21.034;2023-06-22T07:31:25;14.90;;;12.90;;
24995;SDS011;13016;52.162;21.034;2023-06-22T07:43:29;12.60;;;10.30;;
24995;SDS011;13016;52.162;21.034;2023-06-22T07:55:45;10.50;;;7.50;;
24995;SDS011;13016;52.162;21.034;2023-06-22T08:01:45;9.40;;;7.10;;
24995;SDS011;13016;52.162;21.034;2023-06-22T08:14:25;8.70;;;7.00;;
24995;SDS011;13016;52.162;21.034;2023-06-22T08:20:29;6.90;;;6.10;;
24995;SDS011;13016;52.162;21.034;2023-06-22T08:26:30;10.10;;;6.10;;
24995;SDS011;13016;52.162;21.034;2023-06-22T08:32:30;7.60;;;6.30;;
24995;SDS011;13016;52.162;21.034;2023-06-22T08:38:33;5.70;;;4.90;;
24995;SDS011;13016;52.162;21.034;2023-06-22T08:44:34;9.80;;;5.80;;
24995;SDS011;13016;52.162;21.034;2023-06-22T08:50:40;8.50;;;5.10;;
24995;SDS011;13016;52.162;21.034;2023-06-22T08:56:41;7.00;;;4.50;;
24995;SDS011;13016;52.162;21.034;2023-06-22T09:02:41;6.10;;;4.70;;
24995;SDS011;13016;52.162;21.034;2023-06-22T09:08:42;7.50;;;4.10;;
24995;SDS011;13016;52.162;21.034;2023-06-22T09:14:42;7.40;;;4.50;;
24995;SDS011;13016;52.162;21.034;2023-06-22T09:20:57;4.50;;;3.80;;
24995;SDS011;13016;52.162;21.034;2023-06-22T09:27:04;5.40;;;3.60;;
24995;SDS011;13016;52.162;21.034;2023-06-22T09:33:04;6.40;;;3.40;;
24995;SDS011;13016;52.162;21.034;2023-06-22T09:39:11;3.60;;;3.30;;
24995;SDS011;13016;52.162;21.034;2023-06-22T09:45:11;4.30;;;3.70;;
24995;SDS011;13016;52.162;21.034;2023-06-22T09:57:50;5.70;;;3.30;;
24995;SDS011;13016;52.162;21.034;2023-06-22T10:10:18;6.90;;;4.20;;
24995;SDS011;13016;52.162;21.034;2023-06-22T10:22:57;9.60;;;4.40;;
24995;SDS011;13016;52.162;21.034;2023-06-22T10:28:57;6.50;;;3.80;;
24995;SDS011;13016;52.162;21.034;2023-06-22T10:35:00;5.60;;;4.20;;
24995;SDS011;13016;52.162;21.034;2023-06-22T10:41:00;4.80;;;4.20;;
24995;SDS011;13016;52.162;21.034;2023-06-22T10:53:01;10.30;;;4.40;;
24995;SDS011;13016;52.162;21.034;2023-06-22T10:59:01;5.20;;;4.00;;
24995;SDS011;13016;52.162;21.034;2023-06-22T11:05:02;9.00;;;4.90;;
24995;SDS011;13016;52.162;21.034;2023-06-22T11:11:02;7.20;;;4.40;;
24995;SDS011;13016;52.162;21.034;2023-06-22T11:17:12;8.50;;;4.50;;
24995;SDS011;13016;52.162;21.034;2023-06-22T11:23:12;9.70;;;4.40;;
24995;SDS011;13016;52.162;21.034;2023-06-22T11:29:31;9.70;;;4.20;;
24995;SDS011;13016;52.162;21.034;2023-06-22T11:35:32;7.00;;;4.10;;
24995;SDS011;13016;52.162;21.034;2023-06-22T11:47:51;5.90;;;4.20;;
24995;SDS011;13016;52.162;21.034;2023-06-22T11:53:53;5.50;;;4.80;;
24995;SDS011;13016;52.162;21.034;2023-06-22T12:03:16;8.60;;;4.30;;
24995;SDS011;13016;52.162;21.034;2023-06-22T12:15:16;7.00;;;4.60;;
24995;SDS011;13016;52.162;21.034;2023-06-22T12:21:17;7.10;;;4.40;;
24995;SDS011;13016;52.162;21.034;2023-06-22T12:33:17;4.90;;;4.30;;
24995;SDS011;13016;52.162;21.034;2023-06-22T12:45:17;6.60;;;4.20;;
24995;SDS011;13016;52.162;21.034;2023-06-22T12:57:21;6.70;;;4.70;;
24995;SDS011;13016;52.162;21.034;2023-06-22T13:09:22;7.90;;;4.40;;
24995;SDS011;13016;52.162;21.034;2023-06-22T13:15:25;4.40;;;3.90;;
24995;SDS011;13016;52.162;21.034;2023-06-22T13:21:27;4.60;;;4.10;;
24995;SDS011;13016;52.162;21.034;2023-06-22T13:33:38;6.90;;;4.20;;
24995;SDS011;13016;52.162;21.034;2023-06-22T13:45:38;7.20;;;4.40;;
24995;SDS011;13016;52.162;21.034;2023-06-22T13:57:40;17.80;;;14.20;;
24995;SDS011;13016;52.162;21.034;2023-06-22T14:03:41;4.90;;;4.10;;
24995;SDS011;13016;52.162;21.034;2023-06-22T14:15:44;5.90;;;4.10;;
24995;SDS011;13016;52.162;21.034;2023-06-22T14:21:50;5.60;;;4.30;;
24995;SDS011;13016;52.162;21.034;2023-06-22T14:27:52;6.80;;;4.20;;
24995;SDS011;13016;52.162;21.034;2023-06-22T14:39:53;5.20;;;4.20;;
24995;SDS011;13016;52.162;21.034;2023-06-22T14:45:53;5.30;;;4.10;;
24995;SDS011;13016;52.162;21.034;2023-06-22T14:51:54;8.80;;;4.90;;
24995;SDS011;13016;52.162;21.034;2023-06-22T14:58:22;5.60;;;4.10;;
24995;SDS011;13016;52.162;21.034;2023-06-22T15:04:23;5.80;;;4.70;;
24995;SDS011;13016;52.162;21.034;2023-06-22T15:10:23;5.70;;;5.10;;
24995;SDS011;13016;52.162;21.034;2023-06-22T15:16:24;5.20;;;4.20;;
24995;SDS011;13016;52.162;21.034;2023-06-22T15:35:15;5.20;;;4.10;;
24995;SDS011;13016;52.162;21.034;2023-06-22T15:41:16;5.40;;;4.50;;
24995;SDS011;13016;52.162;21.034;2023-06-22T15:47:25;5.60;;;4.20;;
24995;SDS011;13016;52.162;21.034;2023-06-22T15:53:26;8.80;;;4.80;;
24995;SDS011;13016;52.162;21.034;2023-06-22T16:05:26;6.80;;;5.20;;
24995;SDS011;13016;52.162;21.034;2023-06-22T16:11:29;5.10;;;4.50;;
24995;SDS011;13016;52.162;21.034;2023-06-22T16:17:32;5.10;;;4.60;;
24995;SDS011;13016;52.162;21.034;2023-06-22T16:23:32;6.20;;;4.70;;
24995;SDS011;13016;52.162;21.034;2023-06-22T16:29:32;7.20;;;4.90;;
24995;SDS011;13016;52.162;21.034;2023-06-22T16:35:33;8.30;;;5.00;;
24995;SDS011;13016;52.162;21.034;2023-06-22T16:41:33;7.90;;;4.90;;
24995;SDS011;13016;52.162;21.034;2023-06-22T16:47:33;5.80;;;4.70;;
24995;SDS011;13016;52.162;21.034;2023-06-22T16:53:33;6.60;;;4.90;;
24995;SDS011;13016;52.162;21.034;2023-06-22T17:05:34;9.00;;;6.80;;
24995;SDS011;13016;52.162;21.034;2023-06-22T17:11:35;7.10;;;5.80;;
24995;SDS011;13016;52.162;21.034;2023-06-22T17:17:36;5.60;;;4.90;;
24995;SDS011;13016;52.162;21.034;2023-06-22T17:23:47;6.50;;;4.90;;
24995;SDS011;13016;52.162;21.034;2023-06-22T17:29:48;7.00;;;5.30;;
24995;SDS011;13016;52.162;21.034;2023-06-22T17:36:12;8.40;;;5.50;;
24995;SDS011;13016;52.162;21.034;2023-06-22T17:42:13;7.50;;;5.30;;
24995;SDS011;13016;52.162;21.034;2023-06-22T17:48:22;6.50;;;5.10;;
24995;SDS011;13016;52.162;21.034;2023-06-22T17:54:22;6.90;;;5.30;;
24995;SDS011;13016;52.162;21.034;2023-06-22T18:00:36;6.60;;;5.30;;
24995;SDS011;13016;52.162;21.034;2023-06-22T18:06:49;7.40;;;5.30;;
24995;SDS011;13016;52.162;21.034;2023-06-22T18:19:33;6.10;;;5.20;;
24995;SDS011;13016;52.162;21.034;2023-06-22T18:25:36;7.70;;;5.10;;
24995;SDS011;13016;52.162;21.034;2023-06-22T18:31:38;7.20;;;4.90;;
24995;SDS011;13016;52.162;21.034;2023-06-22T18:38:04;7.40;;;5.30;;
24995;SDS011;13016;52.162;21.034;2023-06-22T18:44:20;14.90;;;5.60;;
24995;SDS011;13016;52.162;21.034;2023-06-22T18:50:44;6.90;;;5.10;;
24995;SDS011;13016;52.162;21.034;2023-06-22T18:57:02;11.80;;;5.50;;
24995;SDS011;13016;52.162;21.034;2023-06-22T19:03:29;7.40;;;6.20;;
24995;SDS011;13016;52.162;21.034;2023-06-22T19:09:39;9.30;;;5.70;;
24995;SDS011;13016;52.162;21.034;2023-06-22T19:15:42;7.30;;;5.00;;
24995;SDS011;13016;52.162;21.034;2023-06-22T19:21:57;8.00;;;5.50;;
24995;SDS011;13016;52.162;21.034;2023-06-22T20:17:40;7.30;;;5.60;;
24995;SDS011;13016;52.162;21.034;2023-06-22T20:23:43;9.80;;;6.60;;
24995;SDS011;13016;52.162;21.034;2023-06-22T20:29:44;11.10;;;6.20;;
24995;SDS011;13016;52.162;21.034;2023-06-22T20:35:45;8.30;;;6.20;;
24995;SDS011;13016;52.162;21.034;2023-06-22T20:41:45;11.20;;;6.70;;
24995;SDS011;13016;52.162;21.034;2023-06-22T20:47:45;12.50;;;6.90;;
24995;SDS011;13016;52.162;21.034;2023-06-22T20:53:49;7.70;;;6.80;;
24995;SDS011;13016;52.162;21.034;2023-06-22T21:00:18;10.80;;;7.50;;
24995;SDS011;13016;52.162;21.034;2023-06-22T21:06:18;11.00;;;7.10;;
24995;SDS011;13016;52.162;21.034;2023-06-22T21:12:19;9.90;;;7.70;;
24995;SDS011;13016;52.162;21.034;2023-06-22T21:18:19;10.60;;;7.90;;
24995;SDS011;13016;52.162;21.034;2023-06-22T21:24:19;11.40;;;7.60;;
24995;SDS011;13016;52.162;21.034;2023-06-22T21:30:20;10.00;;;7.60;;
24995;SDS011;13016;52.162;21.034;2023-06-22T21:36:20;9.80;;;6.80;;
24995;SDS011;13016;52.162;21.034;2023-06-22T21:42:21;15.20;;;7.40;;
24995;SDS011;13016;52.162;21.034;2023-06-22T21:48:21;8.40;;;7.20;;
24995;SDS011;13016;52.162;21.034;2023-06-22T21:54:21;14.00;;;6.70;;
24995;SDS011;13016;52.162;21.034;2023-06-22T22:00:21;9.60;;;6.90;;
24995;SDS011;13016;52.162;21.034;2023-06-22T22:06:22;8.70;;;6.60;;
24995;SDS011;13016;52.162;21.034;2023-06-22T22:12:22;10.20;;;6.60;;
24995;SDS011;13016;52.162;21.034;2023-06-22T22:18:22;11.00;;;6.00;;
24995;SDS011;13016;52.162;21.034;2023-06-22T22:24:22;9.50;;;6.30;;
24995;SDS011;13016;52.162;21.034;2023-06-22T22:30:23;8.50;;;6.20;;
24995;SDS011;13016;52.162;21.034;2023-06-22T22:36:23;11.20;;;6.50;;
24995;SDS011;13016;52.162;21.034;2023-06-22T22:42:23;8.80;;;6.70;;
24995;SDS011;13016;52.162;21.034;2023-06-22T22:48:23;11.50;;;6.70;;
24995;SDS011;13016;52.162;21.034;2023-06-22T22:54:24;11.80;;;6.40;;
24995;SDS011;13016;52.162;21.034;2023-06-22T23:00:24;10.60;;;6.60;;
24995;SDS011;13016;52.162;21.034;2023-06-22T23:06:24;10.90;;;6.60;;
24995;SDS011;13016;52.162;21.034;2023-06-22T23:12:24;11.10;;;8.10;;
24995;SDS011;13016;52.162;21.034;2023-06-22T23:18:25;12.30;;;7.00;;
24995;SDS011;13016;52.162;21.034;2023-06-22T23:24:25;10.00;;;7.30;;
24995;SDS011;13016;52.162;21.034;2023-06-22T23:30:25;9.20;;;7.20;;
24995;SDS011;13016;52.162;21.034;2023-06-22T23:36:26;9.60;;;6.50;;
24995;SDS011;13016;52.162;21.034;2023-06-22T23:42:26;9.10;;;6.90;;
24995;SDS011;13016;52.162;21.034;2023-06-22T23:48:26;8.20;;;7.10;;
24995;SDS011;13016;52.162;21.034;2023-06-22T23:54:27;9.20;;;7.30;;
